createdAt,value
2017-12-16T00:01:17.936Z,16.43
2017-12-16T00:03:45.572Z,17.53
2017-12-16T00:06:13.103Z,18.50
2017-12-16T00:08:40.586Z,16.90
2017-12-16T00:11:08.289Z,17.77
2017-12-16T00:13:35.897Z,15.30
2017-12-16T00:16:04.167Z,17.67
2017-12-16T00:18:31.668Z,17.47
2017-12-16T00:20:59.182Z,18.00
2017-12-16T00:23:27.720Z,16.93
2017-12-16T00:25:55.484Z,18.33
2017-12-16T00:28:23.244Z,17.60
2017-12-16T00:30:50.951Z,18.13
2017-12-16T00:33:18.483Z,18.27
2017-12-16T00:35:45.982Z,17.73
2017-12-16T00:38:13.485Z,20.50
2017-12-16T00:40:40.986Z,17.80
2017-12-16T00:43:09.515Z,19.20
2017-12-16T00:45:38.275Z,18.10
2017-12-16T00:48:05.956Z,18.53
2017-12-16T00:50:33.452Z,19.93
2017-12-16T00:53:02.568Z,18.23
2017-12-16T00:55:30.829Z,21.30
2017-12-16T00:57:59.174Z,18.97
2017-12-16T01:00:26.788Z,18.90
2017-12-16T01:02:55.211Z,20.40
2017-12-16T01:05:22.716Z,22.23
2017-12-16T01:07:51.282Z,14.17
2017-12-16T01:10:18.774Z,19.20
2017-12-16T01:12:46.376Z,21.33
2017-12-16T01:15:14.103Z,20.07
2017-12-16T01:17:41.604Z,19.70
2017-12-16T01:20:10.615Z,23.23
2017-12-16T01:22:38.255Z,20.87
2017-12-16T01:25:05.771Z,24.93
2017-12-16T01:27:33.275Z,21.70
2017-12-16T01:30:00.807Z,21.90
2017-12-16T01:32:28.475Z,22.67
2017-12-16T01:35:07.674Z,22.20
2017-12-16T01:37:47.059Z,21.33
2017-12-16T01:40:14.563Z,25.07
2017-12-16T01:42:42.060Z,21.80
2017-12-16T01:45:09.567Z,21.70
2017-12-16T01:47:37.827Z,21.30
2017-12-16T01:50:05.548Z,23.10
2017-12-16T01:52:34.243Z,20.00
2017-12-16T01:55:02.004Z,23.33
2017-12-16T01:57:29.768Z,22.33
2017-12-16T01:59:57.530Z,23.40
2017-12-16T02:02:25.043Z,21.93
2017-12-16T02:04:52.757Z,21.33
2017-12-16T02:07:20.255Z,22.63
2017-12-16T02:09:47.767Z,21.80
2017-12-16T02:12:15.672Z,20.00
2017-12-16T02:14:44.163Z,21.77
2017-12-16T02:17:11.665Z,22.23
2017-12-16T02:19:39.162Z,21.83
2017-12-16T02:22:06.789Z,18.40
2017-12-16T02:24:34.288Z,19.90
2017-12-16T02:27:02.088Z,20.20
2017-12-16T02:29:29.595Z,19.23
2017-12-16T02:31:57.107Z,17.70
2017-12-16T02:34:24.617Z,19.73
2017-12-16T02:36:52.140Z,21.37
2017-12-16T02:39:19.646Z,21.57
2017-12-16T02:41:47.152Z,21.60
2017-12-16T02:44:14.651Z,22.00
2017-12-16T02:46:43.203Z,24.83
2017-12-16T02:49:10.727Z,25.67
2017-12-16T02:51:38.416Z,22.13
2017-12-16T02:54:05.946Z,23.90
2017-12-16T02:56:33.447Z,23.00
2017-12-16T02:59:00.962Z,19.73
2017-12-16T03:01:28.474Z,28.90
2017-12-16T03:03:55.971Z,25.40
2017-12-16T03:06:23.463Z,22.23
2017-12-16T03:08:50.963Z,24.30
2017-12-16T03:11:18.474Z,24.17
2017-12-16T03:13:45.963Z,24.37
2017-12-16T03:16:13.471Z,24.30
2017-12-16T03:18:40.964Z,26.23
2017-12-16T03:21:08.479Z,25.97
2017-12-16T03:23:36.276Z,26.10
2017-12-16T03:26:04.871Z,22.70
2017-12-16T03:28:32.384Z,21.97
2017-12-16T03:31:00.809Z,24.47
2017-12-16T03:33:28.316Z,22.23
2017-12-16T03:35:56.752Z,24.30
2017-12-16T03:38:24.252Z,23.43
2017-12-16T03:40:51.772Z,22.37
2017-12-16T03:43:20.228Z,22.90
2017-12-16T03:45:48.387Z,19.43
2017-12-16T03:48:15.888Z,20.23
2017-12-16T03:50:43.788Z,21.20
2017-12-16T03:53:11.287Z,22.60
2017-12-16T03:55:38.784Z,21.73
2017-12-16T03:58:06.500Z,22.57
2017-12-16T04:00:34.260Z,20.63
2017-12-16T04:03:01.772Z,20.10
2017-12-16T04:05:29.479Z,21.53
2017-12-16T04:07:56.984Z,21.53
2017-12-16T04:10:24.488Z,19.83
2017-12-16T04:12:52.159Z,19.87
2017-12-16T04:15:19.919Z,19.17
2017-12-16T04:17:47.424Z,18.70
2017-12-16T04:20:15.451Z,18.53
2017-12-16T04:22:43.212Z,19.53
2017-12-16T04:25:10.975Z,21.50
2017-12-16T04:27:38.743Z,18.20
2017-12-16T04:30:07.080Z,18.03
2017-12-16T04:32:35.235Z,19.00
2017-12-16T04:35:02.743Z,21.20
2017-12-16T04:37:30.251Z,18.83
2017-12-16T04:39:58.788Z,17.70
2017-12-16T04:42:27.219Z,16.07
2017-12-16T04:44:54.931Z,19.10
2017-12-16T04:47:22.432Z,16.47
2017-12-16T04:49:51.415Z,15.63
2017-12-16T04:52:19.036Z,17.87
2017-12-16T04:54:46.599Z,18.30
2017-12-16T04:57:14.099Z,16.53
2017-12-16T04:59:43.230Z,19.17
2017-12-16T05:02:10.807Z,18.90
2017-12-16T05:04:38.331Z,18.10
2017-12-16T05:07:06.660Z,20.23
2017-12-16T05:09:34.173Z,16.03
2017-12-16T05:12:01.676Z,18.07
2017-12-16T05:14:29.420Z,18.03
2017-12-16T05:16:57.080Z,18.53
2017-12-16T05:19:25.775Z,17.60
2017-12-16T05:21:53.268Z,19.40
2017-12-16T05:24:21.648Z,17.37
2017-12-16T05:26:49.164Z,16.97
2017-12-16T05:29:16.663Z,18.20
2017-12-16T05:31:44.923Z,17.63
2017-12-16T05:34:12.526Z,18.03
2017-12-16T05:36:40.023Z,18.20
2017-12-16T05:39:08.304Z,17.90
2017-12-16T05:41:35.996Z,18.27
2017-12-16T05:44:03.448Z,18.47
2017-12-16T05:46:30.951Z,18.87
2017-12-16T05:48:59.014Z,18.40
2017-12-16T05:51:26.524Z,16.57
2017-12-16T05:53:54.028Z,16.37
2017-12-16T05:56:21.611Z,16.50
2017-12-16T05:58:49.392Z,17.00
2017-12-16T06:01:16.894Z,15.70
2017-12-16T06:03:44.814Z,15.00
2017-12-16T06:06:12.433Z,16.27
2017-12-16T06:08:40.139Z,15.60
2017-12-16T06:11:07.649Z,16.03
2017-12-16T06:13:36.572Z,15.67
2017-12-16T06:16:04.338Z,16.43
2017-12-16T06:18:32.095Z,16.30
2017-12-16T06:20:59.599Z,16.10
2017-12-16T06:23:27.100Z,17.50
2017-12-16T06:25:54.776Z,17.00
2017-12-16T06:28:22.275Z,16.23
2017-12-16T06:30:49.782Z,14.60
2017-12-16T06:33:17.274Z,16.57
2017-12-16T06:35:44.797Z,13.87
2017-12-16T06:38:12.903Z,15.40
2017-12-16T06:40:40.430Z,15.33
2017-12-16T06:43:08.323Z,16.17
2017-12-16T06:45:35.831Z,17.73
2017-12-16T06:48:03.339Z,15.60
2017-12-16T06:50:30.871Z,16.43
2017-12-16T06:52:59.194Z,16.30
2017-12-16T06:55:27.087Z,15.87
2017-12-16T06:57:54.992Z,17.57
2017-12-16T07:00:22.879Z,16.20
2017-12-16T07:02:51.155Z,19.33
2017-12-16T07:05:19.421Z,16.63
2017-12-16T07:07:46.942Z,17.20
2017-12-16T07:10:14.424Z,18.50
2017-12-16T07:12:41.940Z,17.80
2017-12-16T07:15:09.477Z,17.97
2017-12-16T07:17:37.774Z,18.13
2017-12-16T07:20:05.263Z,16.70
2017-12-16T07:22:33.024Z,17.20
2017-12-16T07:25:00.716Z,16.97
2017-12-16T07:27:28.245Z,16.77
2017-12-16T07:29:55.755Z,21.00
2017-12-16T07:32:23.542Z,18.73
2017-12-16T07:34:51.440Z,17.30
2017-12-16T07:37:18.967Z,18.13
2017-12-16T07:39:46.464Z,18.00
2017-12-16T07:42:16.360Z,15.87
2017-12-16T07:44:43.853Z,17.30
2017-12-16T07:47:11.376Z,14.90
2017-12-16T07:49:38.879Z,14.20
2017-12-16T07:52:07.368Z,14.30
2017-12-16T07:54:34.872Z,13.33
2017-12-16T07:57:02.376Z,14.10
2017-12-16T07:59:30.652Z,15.20
2017-12-16T08:01:58.175Z,12.80
2017-12-16T08:04:25.695Z,13.60
2017-12-16T08:06:53.360Z,14.80
2017-12-16T08:09:21.261Z,14.57
2017-12-16T08:11:48.768Z,14.40
2017-12-16T08:14:16.368Z,14.13
2017-12-16T08:16:44.132Z,14.67
2017-12-16T08:19:11.636Z,15.00
2017-12-16T08:21:39.663Z,14.47
2017-12-16T08:24:07.501Z,14.57
2017-12-16T08:26:34.996Z,13.10
2017-12-16T08:29:02.519Z,16.67
2017-12-16T08:31:30.791Z,15.83
2017-12-16T08:33:58.495Z,15.23
2017-12-16T08:36:26.243Z,15.13
2017-12-16T08:38:55.835Z,15.97
2017-12-16T08:41:23.332Z,15.80
2017-12-16T08:43:51.180Z,14.50
2017-12-16T08:46:19.421Z,14.43
2017-12-16T08:48:48.004Z,13.90
2017-12-16T08:51:15.562Z,13.80
2017-12-16T08:53:43.068Z,14.40
2017-12-16T08:56:10.578Z,14.27
2017-12-16T08:58:38.281Z,12.63
2017-12-16T09:01:06.732Z,14.50
2017-12-16T09:03:34.227Z,13.33
2017-12-16T09:06:01.794Z,13.53
2017-12-16T09:08:29.297Z,11.80
2017-12-16T09:10:58.618Z,12.03
2017-12-16T09:13:26.609Z,11.90
2017-12-16T09:15:54.106Z,10.63
2017-12-16T09:18:21.615Z,11.70
2017-12-16T09:20:49.485Z,9.70
2017-12-16T09:23:17.542Z,11.50
2017-12-16T09:25:45.608Z,10.60
2017-12-16T09:28:13.558Z,12.20
2017-12-16T09:30:41.929Z,10.87
2017-12-16T09:33:10.074Z,10.97
2017-12-16T09:35:40.277Z,9.17
2017-12-16T09:38:07.912Z,10.13
2017-12-16T09:40:35.875Z,10.27
2017-12-16T09:43:03.515Z,10.10
2017-12-16T09:45:33.552Z,8.53
2017-12-16T09:48:01.624Z,9.30
2017-12-16T09:50:29.247Z,8.50
2017-12-16T09:52:57.049Z,8.20
2017-12-16T09:55:24.972Z,8.20
2017-12-16T09:57:53.356Z,7.73
2017-12-16T10:00:22.607Z,6.70
2017-12-16T10:02:51.187Z,7.10
2017-12-16T10:05:18.696Z,6.47
2017-12-16T10:07:46.209Z,8.50
2017-12-16T10:10:13.779Z,5.40
2017-12-16T10:12:41.287Z,6.23
2017-12-16T10:15:09.073Z,5.90
2017-12-16T10:17:36.839Z,5.10
2017-12-16T10:20:04.337Z,6.30
2017-12-16T10:22:32.812Z,5.23
2017-12-16T10:25:01.064Z,6.70
2017-12-16T10:27:28.812Z,6.03
2017-12-16T10:29:56.624Z,5.87
2017-12-16T10:32:24.956Z,5.50
2017-12-16T10:34:54.421Z,5.27
2017-12-16T10:37:23.323Z,6.00
2017-12-16T10:39:50.861Z,4.90
2017-12-16T10:42:19.120Z,5.40
2017-12-16T10:44:47.449Z,4.17
2017-12-16T10:47:15.223Z,5.10
2017-12-16T10:49:42.984Z,4.93
2017-12-16T10:52:10.479Z,4.13
2017-12-16T10:54:38.224Z,5.30
2017-12-16T10:57:05.969Z,4.00
2017-12-16T10:59:34.171Z,4.10
2017-12-16T11:02:02.054Z,3.80
2017-12-16T11:04:29.584Z,4.60
2017-12-16T11:06:57.327Z,4.83
2017-12-16T11:09:24.830Z,4.40
2017-12-16T11:11:52.511Z,4.17
2017-12-16T11:14:20.040Z,3.00
2017-12-16T11:16:47.927Z,3.23
2017-12-16T11:19:15.427Z,3.47
2017-12-16T11:21:42.931Z,3.60
2017-12-16T11:24:10.451Z,2.20
2017-12-16T11:26:38.184Z,2.40
2017-12-16T11:29:06.075Z,3.67
2017-12-16T11:31:34.049Z,2.20
2017-12-16T11:34:01.756Z,3.23
2017-12-16T11:36:29.767Z,2.73
2017-12-16T11:38:58.258Z,2.20
2017-12-16T11:41:25.766Z,4.10
2017-12-16T11:43:53.659Z,2.80
2017-12-16T11:46:21.240Z,2.53
2017-12-16T11:48:48.732Z,1.90
2017-12-16T11:51:16.463Z,2.90
2017-12-16T11:53:43.956Z,2.40
2017-12-16T11:56:11.466Z,2.70
2017-12-16T11:58:39.018Z,1.60
2017-12-16T12:01:06.508Z,2.93
2017-12-16T12:03:34.064Z,2.70
2017-12-16T12:06:01.690Z,4.47
2017-12-16T12:08:29.276Z,2.50
2017-12-16T12:10:57.146Z,3.00
2017-12-16T12:13:24.794Z,2.70
2017-12-16T12:15:52.566Z,1.80
2017-12-16T12:18:20.325Z,2.30
2017-12-16T12:20:48.088Z,3.30
2017-12-16T12:23:15.632Z,2.30
2017-12-16T12:25:43.214Z,2.50
2017-12-16T12:28:10.715Z,3.23
2017-12-16T12:30:38.215Z,2.13
2017-12-16T12:33:05.985Z,2.03
2017-12-16T12:35:33.544Z,1.87
2017-12-16T12:38:01.209Z,1.70
2017-12-16T12:40:28.699Z,2.30
2017-12-16T12:42:57.027Z,1.37
2017-12-16T12:45:24.542Z,1.57
2017-12-16T12:47:52.047Z,2.27
2017-12-16T12:50:19.715Z,1.03
2017-12-16T12:52:47.223Z,1.40
2017-12-16T12:55:15.426Z,1.37
2017-12-16T12:57:43.004Z,1.27
2017-12-16T13:00:11.362Z,1.57
2017-12-16T13:02:38.870Z,2.87
2017-12-16T13:05:06.399Z,1.90
2017-12-16T13:07:34.587Z,1.30
2017-12-16T13:10:02.742Z,1.40
2017-12-16T13:12:30.509Z,1.90
2017-12-16T13:14:58.010Z,1.33
2017-12-16T13:17:25.726Z,1.40
2017-12-16T13:19:53.219Z,1.83
2017-12-16T13:22:20.723Z,1.07
2017-12-16T13:24:48.212Z,1.23
2017-12-16T13:27:16.518Z,2.30
2017-12-16T13:29:44.653Z,4.30
2017-12-16T13:32:12.169Z,1.30
2017-12-16T13:34:40.065Z,1.60
2017-12-16T13:37:08.177Z,1.60
2017-12-16T13:39:36.611Z,1.53
2017-12-16T13:42:04.106Z,2.00
2017-12-16T13:44:31.799Z,1.90
2017-12-16T13:46:59.566Z,1.70
2017-12-16T13:49:27.583Z,1.50
2017-12-16T13:51:55.131Z,1.50
2017-12-16T13:54:22.630Z,2.50
2017-12-16T13:56:50.932Z,1.40
2017-12-16T13:59:19.199Z,2.33
2017-12-16T14:01:46.696Z,1.70
2017-12-16T14:04:14.469Z,1.70
2017-12-16T14:06:42.531Z,1.50
2017-12-16T14:09:11.223Z,1.50
2017-12-16T14:11:38.717Z,1.47
2017-12-16T14:14:06.922Z,1.20
2017-12-16T14:16:34.811Z,1.30
2017-12-16T14:19:03.495Z,1.60
2017-12-16T14:21:31.268Z,2.00
2017-12-16T14:23:58.804Z,1.83
2017-12-16T14:26:27.096Z,2.00
2017-12-16T14:28:54.861Z,1.97
2017-12-16T14:31:22.572Z,2.47
2017-12-16T14:33:50.079Z,2.83
2017-12-16T14:36:17.843Z,2.03
2017-12-16T14:38:45.344Z,2.23
2017-12-16T14:41:14.599Z,2.67
2017-12-16T14:43:42.487Z,2.00
2017-12-16T14:46:10.123Z,2.07
2017-12-16T14:48:37.895Z,1.80
2017-12-16T14:51:05.797Z,2.07
2017-12-16T14:53:34.051Z,2.30
2017-12-16T14:56:01.551Z,1.67
2017-12-16T14:58:29.573Z,2.20
2017-12-16T15:00:57.579Z,2.63
2017-12-16T15:03:25.100Z,2.93
2017-12-16T15:05:52.595Z,2.07
2017-12-16T15:08:20.483Z,1.63
2017-12-16T15:10:48.773Z,1.37
2017-12-16T15:13:16.662Z,1.40
2017-12-16T15:15:44.920Z,1.83
2017-12-16T15:18:12.777Z,2.00
2017-12-16T15:20:41.284Z,1.63
2017-12-16T15:23:09.051Z,1.33
2017-12-16T15:25:37.116Z,1.47
2017-12-16T15:28:05.466Z,2.20
2017-12-16T15:30:32.961Z,1.67
2017-12-16T15:33:01.015Z,1.70
2017-12-16T15:35:28.899Z,1.73
2017-12-16T15:37:56.543Z,2.03
2017-12-16T15:40:24.436Z,2.43
2017-12-16T15:42:51.945Z,2.10
2017-12-16T15:45:19.495Z,2.07
2017-12-16T15:47:46.991Z,2.00
2017-12-16T15:50:14.484Z,1.93
2017-12-16T15:52:41.987Z,2.17
2017-12-16T15:55:09.503Z,1.57
2017-12-16T15:57:38.116Z,2.00
2017-12-16T16:00:06.424Z,1.87
2017-12-16T16:02:33.928Z,2.53
2017-12-16T16:05:01.698Z,2.60
2017-12-16T16:07:30.315Z,1.67
2017-12-16T16:09:58.389Z,2.20
2017-12-16T16:12:25.897Z,1.70
2017-12-16T16:14:53.396Z,1.90
2017-12-16T16:17:21.660Z,2.00
2017-12-16T16:19:50.056Z,2.10
2017-12-16T16:22:18.877Z,1.20
2017-12-16T16:24:47.076Z,2.83
2017-12-16T16:27:14.588Z,1.80
2017-12-16T16:29:43.107Z,1.87
2017-12-16T16:32:11.365Z,1.67
2017-12-16T16:34:38.872Z,2.30
2017-12-16T16:37:07.131Z,2.10
2017-12-16T16:39:35.935Z,1.87
2017-12-16T16:42:05.526Z,1.90
2017-12-16T16:44:33.818Z,2.03
2017-12-16T16:47:01.307Z,2.63
2017-12-16T16:49:28.805Z,2.50
2017-12-16T16:51:56.663Z,2.50
2017-12-16T16:54:24.777Z,2.60
2017-12-16T16:56:52.268Z,2.77
2017-12-16T16:59:20.536Z,1.93
2017-12-16T17:01:48.183Z,2.93
2017-12-16T17:04:15.701Z,2.27
2017-12-16T17:06:43.404Z,2.23
2017-12-16T17:09:11.167Z,2.30
2017-12-16T17:11:39.587Z,2.13
2017-12-16T17:14:07.361Z,2.70
2017-12-16T17:16:34.824Z,3.13
2017-12-16T17:19:02.509Z,2.97
2017-12-16T17:21:30.012Z,2.53
2017-12-16T17:23:58.161Z,2.40
2017-12-16T17:26:25.611Z,3.57
2017-12-16T17:28:53.104Z,3.00
2017-12-16T17:31:20.610Z,4.57
2017-12-16T17:33:48.195Z,2.70
2017-12-16T17:36:15.883Z,2.60
2017-12-16T17:38:44.886Z,3.30
2017-12-16T17:41:12.392Z,2.93
2017-12-16T17:43:40.350Z,3.30
2017-12-16T17:46:08.601Z,2.23
2017-12-16T17:48:36.309Z,2.63
2017-12-16T17:51:03.809Z,2.67
2017-12-16T17:53:31.301Z,1.80
2017-12-16T17:55:58.973Z,2.20
2017-12-16T17:58:26.880Z,3.05
2017-12-16T18:00:55.435Z,3.83
2017-12-16T18:03:23.339Z,3.73
2017-12-16T18:05:51.613Z,2.50
2017-12-16T18:08:19.496Z,1.93
2017-12-16T18:10:47.759Z,2.00
2017-12-16T18:13:16.104Z,2.37
2017-12-16T18:15:44.309Z,2.37
2017-12-16T18:18:11.917Z,2.43
2017-12-16T18:20:39.804Z,2.70
2017-12-16T18:23:09.016Z,2.43
2017-12-16T18:25:36.513Z,2.40
2017-12-16T18:28:04.047Z,2.60
2017-12-16T18:30:32.311Z,3.93
2017-12-16T18:33:00.012Z,2.80
2017-12-16T18:35:28.787Z,3.60
2017-12-16T18:37:56.362Z,2.80
2017-12-16T18:40:23.915Z,3.40
2017-12-16T18:42:52.002Z,3.00
2017-12-16T18:45:19.920Z,4.07
2017-12-16T18:47:47.407Z,2.60
2017-12-16T18:50:14.912Z,2.83
2017-12-16T18:52:42.419Z,2.90
2017-12-16T18:55:09.910Z,3.80
2017-12-16T18:57:37.972Z,2.67
2017-12-16T19:00:05.461Z,3.70
2017-12-16T19:02:34.169Z,3.40
2017-12-16T19:05:01.668Z,3.40
2017-12-16T19:07:29.156Z,3.60
2017-12-16T19:09:56.816Z,4.43
2017-12-16T19:12:25.676Z,3.20
2017-12-16T19:14:53.588Z,2.17
2017-12-16T19:17:21.267Z,1.93
2017-12-16T19:19:48.779Z,1.93
2017-12-16T19:22:16.280Z,1.83
2017-12-16T19:24:43.786Z,1.60
2017-12-16T19:27:12.411Z,2.23
2017-12-16T19:29:41.416Z,2.03
2017-12-16T19:32:09.029Z,2.60
2017-12-16T19:34:36.924Z,2.60
2017-12-16T19:37:06.227Z,2.40
2017-12-16T19:39:33.738Z,2.53
2017-12-16T19:42:01.233Z,6.13
2017-12-16T19:44:29.808Z,2.80
2017-12-16T19:46:57.296Z,2.80
2017-12-16T19:49:25.187Z,3.20
2017-12-16T19:51:54.087Z,3.53
2017-12-16T19:54:22.100Z,3.20
2017-12-16T19:56:49.591Z,2.90
2017-12-16T19:59:17.596Z,3.20
2017-12-16T20:01:45.095Z,2.87
2017-12-16T20:04:12.604Z,3.27
2017-12-16T20:06:40.103Z,2.80
2017-12-16T20:09:07.595Z,2.53
2017-12-16T20:11:35.859Z,2.47
2017-12-16T20:14:03.363Z,4.73
2017-12-16T20:16:30.860Z,2.50
2017-12-16T20:18:59.121Z,2.43
2017-12-16T20:21:27.539Z,2.10
2017-12-16T20:23:55.045Z,2.90
2017-12-16T20:26:22.657Z,2.37
2017-12-16T20:28:50.548Z,1.97
2017-12-16T20:31:18.224Z,2.30
2017-12-16T20:33:46.005Z,2.83
2017-12-16T20:36:13.506Z,4.37
2017-12-16T20:38:41.517Z,2.83
2017-12-16T20:41:09.568Z,2.57
2017-12-16T20:43:37.968Z,2.40
2017-12-16T20:46:07.588Z,2.93
2017-12-16T20:48:35.117Z,2.40
2017-12-16T20:51:02.618Z,2.60
2017-12-16T20:53:30.256Z,2.73
2017-12-16T20:55:57.759Z,2.17
2017-12-16T20:58:25.360Z,2.27
2017-12-16T21:00:53.112Z,1.90
2017-12-16T21:03:21.108Z,2.53
2017-12-16T21:05:48.614Z,3.30
2017-12-16T21:08:16.945Z,2.30
2017-12-16T21:10:44.897Z,2.67
2017-12-16T21:13:12.584Z,2.87
2017-12-16T21:15:41.536Z,2.60
2017-12-16T21:18:09.108Z,2.97
2017-12-16T21:20:37.119Z,2.77
2017-12-16T21:23:05.442Z,3.77
2017-12-16T21:25:33.975Z,3.57
2017-12-16T21:28:02.735Z,3.10
2017-12-16T21:30:30.397Z,3.03
2017-12-16T21:32:58.290Z,2.40
2017-12-16T21:35:25.796Z,3.40
2017-12-16T21:37:53.687Z,3.17
2017-12-16T21:40:21.448Z,3.03
2017-12-16T21:42:48.954Z,3.17
2017-12-16T21:45:16.454Z,3.17
2017-12-16T21:47:44.947Z,2.97
2017-12-16T21:50:12.436Z,3.60
2017-12-16T21:52:41.393Z,3.20
2017-12-16T21:55:09.660Z,3.17
2017-12-16T21:57:37.289Z,3.37
2017-12-16T22:00:04.800Z,3.30
2017-12-16T22:02:32.291Z,3.17
2017-12-16T22:05:00.303Z,3.67
2017-12-16T22:07:28.193Z,3.17
2017-12-16T22:09:56.092Z,3.27
2017-12-16T22:12:24.176Z,3.10
2017-12-16T22:14:52.475Z,3.77
2017-12-16T22:17:19.960Z,3.53
2017-12-16T22:19:49.063Z,3.23
2017-12-16T22:22:16.809Z,4.33
2017-12-16T22:24:44.317Z,4.87
2017-12-16T22:27:15.755Z,4.37
2017-12-16T22:29:44.143Z,3.97
2017-12-16T22:32:11.864Z,4.63
2017-12-16T22:34:39.368Z,4.70
2017-12-16T22:37:07.695Z,4.47
2017-12-16T22:39:35.592Z,5.00
2017-12-16T22:42:03.862Z,4.10
2017-12-16T22:44:31.904Z,5.10
2017-12-16T22:46:59.667Z,4.37
2017-12-16T22:49:27.611Z,3.90
2017-12-16T22:51:55.056Z,4.17
2017-12-16T22:54:23.137Z,4.03
2017-12-16T22:56:51.064Z,3.53
2017-12-16T22:59:20.944Z,4.63
2017-12-16T23:01:50.662Z,4.03
2017-12-16T23:04:18.430Z,3.87
2017-12-16T23:06:48.748Z,3.90
2017-12-16T23:09:16.317Z,4.20
2017-12-16T23:11:44.139Z,3.53
2017-12-16T23:14:13.581Z,3.87
2017-12-16T23:16:41.871Z,3.93
2017-12-16T23:19:09.440Z,3.50
2017-12-16T23:21:41.642Z,4.17
2017-12-16T23:24:09.992Z,4.50
2017-12-16T23:26:38.382Z,3.77
2017-12-16T23:29:07.671Z,3.60
2017-12-16T23:31:36.833Z,3.57
2017-12-16T23:34:04.395Z,3.17
2017-12-16T23:36:32.147Z,3.20
2017-12-16T23:38:59.647Z,3.50
2017-12-16T23:41:27.906Z,2.93
2017-12-16T23:43:55.748Z,3.07
2017-12-16T23:46:23.811Z,3.87
2017-12-16T23:48:51.312Z,4.17
2017-12-16T23:51:19.347Z,3.67
2017-12-16T23:53:46.840Z,4.10
2017-12-16T23:56:15.101Z,4.37
2017-12-16T23:58:43.359Z,4.40
